aviador You're here:

LDZA Decoded Metar

ZAGREB in CROATIA
Report Time2018-04-24 14:00:00
UTC Time2018-04-24 14:30:24
Flight Rules vfr VFR
WindVRB at 04 kt
Visibility9999 m
Phenomena:N/A
Clouds:N/A
Expected CloudBase > 5,600 ft AGL from Temp-Dew spread
CeilingNone
Temp25°C (ISA +11)
Dew Point11°C (42% RH)
AAT23.9°C
QNH1016 hPa
Density Alt1,667 ft
Elevation351 ft
Report Wrong Elevation
Raw Report
LDZA 241400Z VRB04KT CAVOK 25/11 Q1016 NOSIG=

Extra information for LDZA:More info

Metar Taf Metar & Taf Last 4 Metars F.Rules Stats Wind Profile Meteogram Temp Stats Airport Information Weather charts Add Link Nearby VenuesMetar ALERT Operation Metar Decoded Social comments